Time;durP1;ratioP1;P1;durP2;ratioP2;P2;SDS_P1;SDS_P2;PMS_P1;PMS_P2;Temp;Humidity;BMP_temperature;BMP_pressure;BME280_temperature;BME280_humidity;BME280_pressure;Samples;Min_cycle;Max_cycle;Signal;HPM_P1;HPM_P2
2021/07/20 00:01:25;;;;;;;1.40;1.30;;;;;;;;;;4986124;28;20052;-79
2021/07/20 00:03:50;;;;;;;1.40;1.30;;;;;;;;;;5008269;28;20270;-79
2021/07/20 00:06:18;;;;;;;1.60;1.50;;;;;;;;;;5000951;28;20082;-77
2021/07/20 00:08:43;;;;;;;1.60;1.40;;;;;;;;;;5002316;28;20129;-77
2021/07/20 00:11:09;;;;;;;1.55;1.45;;;;;;;;;;4994783;28;20080;-79
2021/07/20 00:13:34;;;;;;;1.55;1.45;;;;;;;;;;4991380;28;20065;-79
2021/07/20 00:16:01;;;;;;;1.50;1.40;;;;;;;;;;5005019;28;20416;-77
2021/07/20 00:18:33;;;;;;;1.50;1.40;;;;;;;;;;5009373;28;20406;-79
2021/07/20 00:21:02;;;;;;;1.50;1.40;;;;;;;;;;5012180;28;20030;-78
2021/07/20 00:23:30;;;;;;;1.42;1.33;;;;;;;;;;5004813;28;20030;-77
2021/07/20 00:25:55;;;;;;;1.50;1.40;;;;;;;;;;5010095;28;20045;-79
2021/07/20 00:28:21;;;;;;;1.35;1.30;;;;;;;;;;5010006;28;20165;-79
2021/07/20 00:30:48;;;;;;;1.50;1.40;;;;;;;;;;5007060;28;20033;-76
2021/07/20 00:33:16;;;;;;;1.50;1.40;;;;;;;;;;4991743;28;20030;-77
2021/07/20 00:35:42;;;;;;;1.50;1.40;;;;;;;;;;5019025;28;20492;-77
2021/07/20 00:38:11;;;;;;;1.63;1.50;;;;;;;;;;5004700;28;20473;-78
2021/07/20 00:40:41;;;;;;;1.50;1.40;;;;;;;;;;4985266;28;20086;-79
2021/07/20 00:43:09;;;;;;;1.60;1.50;;;;;;;;;;4996132;28;20057;-79
2021/07/20 00:45:37;;;;;;;1.60;1.40;;;;;;;;;;4994261;28;20507;-79
2021/07/20 00:48:03;;;;;;;1.65;1.30;;;;;;;;;;5008186;28;20101;-78
2021/07/20 00:50:33;;;;;;;1.50;1.40;;;;;;;;;;4994414;28;20114;-79
2021/07/20 00:52:58;;;;;;;1.60;1.50;;;;;;;;;;5020447;28;20393;-77
2021/07/20 00:55:23;;;;;;;1.33;1.27;;;;;;;;;;4993645;28;20105;-78
2021/07/20 00:57:52;;;;;;;2.28;1.52;;;;;;;;;;4990065;28;20018;-76
2021/07/20 01:00:19;;;;;;;1.40;1.30;;;;;;;;;;4990339;28;20029;-78
2021/07/20 01:02:48;;;;;;;1.95;1.30;;;;;;;;;;4989506;28;20122;-76
2021/07/20 01:05:19;;;;;;;1.50;1.40;;;;;;;;;;4982950;28;20031;-78
2021/07/20 01:07:46;;;;;;;1.33;1.23;;;;;;;;;;4991763;28;20106;-76
2021/07/20 01:10:12;;;;;;;1.50;1.40;;;;;;;;;;4989586;28;20102;-78
2021/07/20 01:12:41;;;;;;;1.30;1.20;;;;;;;;;;4997420;28;20557;-78
2021/07/20 01:15:07;;;;;;;1.20;1.20;;;;;;;;;;5006358;28;20030;-78
2021/07/20 01:17:36;;;;;;;1.50;1.40;;;;;;;;;;4990000;28;20026;-78
2021/07/20 01:20:05;;;;;;;1.35;1.27;;;;;;;;;;5006027;28;20034;-78
2021/07/20 01:22:33;;;;;;;1.60;1.50;;;;;;;;;;4990262;28;20037;-78
2021/07/20 01:25:12;;;;;;;1.40;1.30;;;;;;;;;;4999491;28;20173;-78
2021/07/20 01:27:43;;;;;;;1.58;1.48;;;;;;;;;;4983870;28;20423;-78
2021/07/20 01:30:11;;;;;;;1.40;1.30;;;;;;;;;;5008127;28;20375;-76
2021/07/20 01:32:38;;;;;;;1.40;1.30;;;;;;;;;;5006667;28;20129;-78
2021/07/20 01:35:04;;;;;;;1.20;1.20;;;;;;;;;;4996008;28;20080;-78
2021/07/20 01:37:29;;;;;;;1.40;1.30;;;;;;;;;;4981830;28;20370;-78
2021/07/20 01:39:56;;;;;;;1.48;1.38;;;;;;;;;;5003239;28;20108;-77
2021/07/20 01:42:22;;;;;;;1.50;1.40;;;;;;;;;;4999990;28;20051;-76
2021/07/20 01:44:47;;;;;;;1.50;1.40;;;;;;;;;;5004710;28;20080;-76
2021/07/20 01:47:13;;;;;;;1.50;1.40;;;;;;;;;;5001676;28;20111;-79
2021/07/20 01:49:40;;;;;;;;;;;;;;;;;;5007677;28;20146;-79
2021/07/20 01:52:08;;;;;;;1.40;1.30;;;;;;;;;;4994858;28;20012;-76
2021/07/20 01:54:35;;;;;;;1.63;1.50;;;;;;;;;;4995671;28;20025;-78
2021/07/20 01:57:02;;;;;;;1.90;1.40;;;;;;;;;;5006799;28;20071;-76
2021/07/20 01:59:47;;;;;;;1.30;1.20;;;;;;;;;;5000713;28;20432;-78
2021/07/20 02:02:30;;;;;;;1.88;1.30;;;;;;;;;;4992199;28;20034;-76
2021/07/20 02:10:41;;;;;;;1.48;1.38;;;;;;;;;;4996298;28;20046;-78
2021/07/20 02:13:14;;;;;;;1.50;1.40;;;;;;;;;;4999044;28;20044;-76
2021/07/20 02:16:01;;;;;;;1.50;1.40;;;;;;;;;;5002801;28;20053;-78
2021/07/20 02:18:34;;;;;;;1.30;1.20;;;;;;;;;;5007844;28;20117;-78
2021/07/20 02:21:08;;;;;;;1.40;1.30;;;;;;;;;;4988598;28;20114;-78
2021/07/20 02:23:41;;;;;;;1.40;1.30;;;;;;;;;;4988776;28;20129;-77
2021/07/20 02:26:08;;;;;;;1.40;1.30;;;;;;;;;;4996291;28;20058;-76
2021/07/20 02:28:35;;;;;;;1.45;1.35;;;;;;;;;;5008010;28;20097;-79
2021/07/20 02:31:04;;;;;;;1.40;1.30;;;;;;;;;;5001875;28;20057;-78
2021/07/20 02:33:36;;;;;;;1.25;1.23;;;;;;;;;;4983623;28;20049;-78
2021/07/20 02:36:05;;;;;;;1.50;1.40;;;;;;;;;;4997631;28;20097;-77
2021/07/20 02:38:37;;;;;;;1.40;1.30;;;;;;;;;;5008145;28;20057;-78
2021/07/20 02:41:03;;;;;;;1.63;1.52;;;;;;;;;;5014989;28;20030;-77
2021/07/20 02:43:29;;;;;;;1.40;1.30;;;;;;;;;;4997499;28;20030;-78
2021/07/20 02:45:55;;;;;;;1.40;1.30;;;;;;;;;;4990114;28;20030;-77
2021/07/20 02:48:22;;;;;;;1.95;1.42;;;;;;;;;;5003245;28;20089;-77
2021/07/20 02:50:48;;;;;;;1.65;1.40;;;;;;;;;;4983302;28;20026;-78
2021/07/20 02:53:20;;;;;;;1.35;1.25;;;;;;;;;;5007504;28;20045;-76
2021/07/20 02:55:54;;;;;;;1.45;1.30;;;;;;;;;;5005716;28;20033;-78
2021/07/20 02:58:23;;;;;;;1.67;1.42;;;;;;;;;;5003652;28;20029;-79
2021/07/20 03:00:50;;;;;;;1.33;1.30;;;;;;;;;;5006398;28;20039;-79
2021/07/20 03:03:19;;;;;;;1.52;1.42;;;;;;;;;;4997350;28;20034;-79
2021/07/20 03:05:50;;;;;;;1.50;1.35;;;;;;;;;;4998865;28;20089;-77
2021/07/20 03:08:18;;;;;;;1.40;1.30;;;;;;;;;;5003292;28;20034;-78
2021/07/20 03:10:56;;;;;;;1.83;1.48;;;;;;;;;;4991237;28;20268;-77
2021/07/20 03:13:24;;;;;;;1.50;1.33;;;;;;;;;;4992384;28;20104;-78
2021/07/20 03:15:50;;;;;;;1.60;1.50;;;;;;;;;;4988421;28;20097;-77
2021/07/20 03:18:19;;;;;;;2.55;1.50;;;;;;;;;;4980495;28;20127;-78
2021/07/20 03:20:46;;;;;;;1.70;1.50;;;;;;;;;;4987929;28;20057;-78
2021/07/20 03:23:12;;;;;;;1.50;1.40;;;;;;;;;;5007384;28;20030;-77
2021/07/20 03:25:42;;;;;;;1.50;1.40;;;;;;;;;;4994727;28;20710;-78
2021/07/20 03:28:12;;;;;;;1.60;1.50;;;;;;;;;;4986569;28;20117;-75
2021/07/20 03:30:40;;;;;;;1.50;1.40;;;;;;;;;;4982515;28;20499;-76
2021/07/20 03:33:11;;;;;;;1.45;1.35;;;;;;;;;;4996658;28;20061;-78
2021/07/20 03:35:46;;;;;;;2.05;1.50;;;;;;;;;;5003936;28;20403;-77
2021/07/20 03:38:13;;;;;;;1.50;1.40;;;;;;;;;;4993983;28;20026;-77
2021/07/20 03:40:45;;;;;;;1.50;1.35;;;;;;;;;;4995110;28;20037;-78
2021/07/20 03:43:11;;;;;;;1.50;1.40;;;;;;;;;;5019183;28;20476;-78
2021/07/20 03:45:38;;;;;;;1.50;1.40;;;;;;;;;;4993552;28;20023;-80
2021/07/20 03:48:03;;;;;;;1.50;1.40;;;;;;;;;;5010386;28;20542;-77
2021/07/20 03:50:44;;;;;;;1.40;1.30;;;;;;;;;;5009394;28;20033;-76
2021/07/20 03:53:11;;;;;;;1.48;1.38;;;;;;;;;;5003016;28;20060;-79
2021/07/20 03:55:36;;;;;;;1.33;1.30;;;;;;;;;;4992556;28;20109;-77
2021/07/20 03:58:05;;;;;;;1.60;1.50;;;;;;;;;;5008395;28;20504;-78
2021/07/20 04:00:32;;;;;;;1.60;1.50;;;;;;;;;;4994323;28;20531;-76
2021/07/20 04:06:07;;;;;;;1.55;1.45;;;;;;;;;;5003076;28;20404;-78
2021/07/20 04:08:39;;;;;;;1.60;1.40;;;;;;;;;;4998449;28;20030;-78
2021/07/20 04:11:05;;;;;;;1.50;1.40;;;;;;;;;;4997969;28;20030;-76
2021/07/20 04:13:42;;;;;;;1.40;1.30;;;;;;;;;;5015152;28;20071;-78
2021/07/20 04:16:19;;;;;;;;;;;;;;;;;;5023528;28;20426;-77
2021/07/20 04:18:44;;;;;;;1.50;1.40;;;;;;;;;;5003485;28;19913;-76
2021/07/20 04:21:17;;;;;;;1.40;1.30;;;;;;;;;;4994212;28;20018;-76
2021/07/20 04:23:44;;;;;;;1.50;1.40;;;;;;;;;;4998245;28;20053;-78
2021/07/20 04:26:21;;;;;;;1.50;1.40;;;;;;;;;;5002968;28;20026;-79
2021/07/20 04:28:47;;;;;;;1.53;1.43;;;;;;;;;;5010954;28;20030;-77
2021/07/20 04:31:15;;;;;;;1.70;1.60;;;;;;;;;;5004857;28;20264;-79
2021/07/20 04:33:43;;;;;;;1.80;1.55;;;;;;;;;;4995030;28;20065;-78
2021/07/20 04:36:26;;;;;;;1.52;1.42;;;;;;;;;;5001928;28;20041;-79
2021/07/20 04:39:00;;;;;;;1.52;1.42;;;;;;;;;;5008770;28;20392;-79
2021/07/20 04:41:26;;;;;;;1.50;1.40;;;;;;;;;;5010004;28;20030;-79
2021/07/20 04:43:52;;;;;;;1.40;1.30;;;;;;;;;;5003488;28;20160;-78
2021/07/20 04:46:30;;;;;;;1.40;1.30;;;;;;;;;;5009309;28;20098;-79
2021/07/20 04:49:05;;;;;;;1.70;1.60;;;;;;;;;;4993658;28;20337;-80
2021/07/20 04:51:31;;;;;;;1.33;1.30;;;;;;;;;;4985369;28;20038;-79
2021/07/20 04:53:58;;;;;;;1.60;1.50;;;;;;;;;;4994632;28;20024;-79
2021/07/20 04:56:26;;;;;;;2.25;1.60;;;;;;;;;;4987806;28;20030;-79
2021/07/20 04:58:54;;;;;;;1.90;1.70;;;;;;;;;;5003638;28;20029;-79
2021/07/20 05:01:20;;;;;;;1.50;1.40;;;;;;;;;;5008549;28;20439;-78
2021/07/20 05:03:49;;;;;;;1.85;1.50;;;;;;;;;;5009889;28;20082;-78
2021/07/20 05:06:21;;;;;;;1.58;1.48;;;;;;;;;;4993211;28;20018;-80
2021/07/20 05:08:50;;;;;;;;;;;;;;;;;;5004496;28;20030;-77
2021/07/20 05:11:18;;;;;;;1.40;1.30;;;;;;;;;;5004407;28;20004;-78
2021/07/20 05:13:45;;;;;;;1.20;1.20;;;;;;;;;;4991633;28;20035;-79
2021/07/20 05:16:12;;;;;;;1.40;1.30;;;;;;;;;;5006152;28;20034;-79
2021/07/20 05:18:48;;;;;;;1.45;1.35;;;;;;;;;;4996297;28;20400;-78
2021/07/20 05:21:34;;;;;;;1.40;1.30;;;;;;;;;;5009100;28;20034;-76
2021/07/20 05:23:59;;;;;;;1.50;1.35;;;;;;;;;;5027295;28;20041;-78
2021/07/20 05:26:49;;;;;;;1.40;1.30;;;;;;;;;;4997842;28;20025;-77
2021/07/20 05:29:19;;;;;;;1.40;1.30;;;;;;;;;;4998420;28;20188;-77
2021/07/20 05:31:56;;;;;;;1.75;1.40;;;;;;;;;;5009494;28;20041;-76
2021/07/20 05:34:22;;;;;;;1.33;1.23;;;;;;;;;;4993895;28;20027;-79
2021/07/20 05:36:48;;;;;;;1.55;1.40;;;;;;;;;;5012526;28;20038;-78
2021/07/20 05:39:19;;;;;;;1.42;1.33;;;;;;;;;;5018868;28;20037;-78
2021/07/20 05:41:52;;;;;;;2.13;1.50;;;;;;;;;;5011697;28;20411;-79
2021/07/20 05:44:19;;;;;;;1.50;1.40;;;;;;;;;;4991540;28;20034;-79
2021/07/20 05:46:47;;;;;;;1.83;1.50;;;;;;;;;;4998685;28;20093;-77
2021/07/20 05:49:14;;;;;;;1.50;1.40;;;;;;;;;;4994304;28;20029;-78
2021/07/20 05:51:40;;;;;;;;;;;;;;;;;;5015834;28;20038;-78
2021/07/20 05:54:13;;;;;;;1.80;1.40;;;;;;;;;;4991059;28;19925;-77
2021/07/20 05:56:53;;;;;;;1.55;1.45;;;;;;;;;;5001840;28;20042;-76
2021/07/20 05:59:51;;;;;;;2.28;1.60;;;;;;;;;;4990488;28;20121;-75
2021/07/20 06:02:20;;;;;;;2.00;1.55;;;;;;;;;;5006341;28;20025;-81
2021/07/20 06:04:49;;;;;;;1.70;1.40;;;;;;;;;;5005772;28;20554;-80
2021/07/20 06:07:14;;;;;;;1.63;1.50;;;;;;;;;;5005662;28;20029;-79
2021/07/20 06:09:41;;;;;;;2.05;1.50;;;;;;;;;;4991279;28;20037;-80
2021/07/20 06:12:08;;;;;;;;;;;;;;;;;;5002791;28;20072;-80
2021/07/20 06:14:35;;;;;;;1.60;1.50;;;;;;;;;;5000637;28;19963;-80
2021/07/20 06:17:05;;;;;;;2.03;1.50;;;;;;;;;;4985692;28;20057;-79
2021/07/20 06:19:36;;;;;;;1.40;1.30;;;;;;;;;;4999869;28;20056;-79
2021/07/20 06:22:04;;;;;;;1.35;1.20;;;;;;;;;;4988786;28;20046;-79
2021/07/20 06:24:36;;;;;;;1.40;1.30;;;;;;;;;;5002445;28;20600;-81
2021/07/20 06:27:02;;;;;;;1.20;1.10;;;;;;;;;;4990579;28;20034;-80
2021/07/20 06:29:27;;;;;;;1.40;1.30;;;;;;;;;;5004396;28;20504;-80
2021/07/20 06:31:53;;;;;;;1.27;1.17;;;;;;;;;;5001612;28;20119;-80
2021/07/20 06:34:18;;;;;;;1.42;1.30;;;;;;;;;;4993346;28;20229;-79
2021/07/20 06:36:44;;;;;;;1.42;1.23;;;;;;;;;;4998321;28;20511;-81
2021/07/20 06:39:10;;;;;;;1.45;1.20;;;;;;;;;;4990369;28;20030;-79
2021/07/20 06:41:36;;;;;;;1.23;1.13;;;;;;;;;;4999275;28;20120;-79
2021/07/20 06:44:03;;;;;;;1.10;1.10;;;;;;;;;;4997180;28;20057;-80
2021/07/20 06:46:29;;;;;;;1.57;1.40;;;;;;;;;;5018125;28;20403;-80
2021/07/20 06:48:54;;;;;;;1.20;1.20;;;;;;;;;;5002064;28;20037;-79
2021/07/20 06:51:20;;;;;;;1.40;1.30;;;;;;;;;;5002479;28;20026;-79
2021/07/20 06:53:48;;;;;;;1.10;1.10;;;;;;;;;;5003957;28;20030;-79
2021/07/20 06:56:18;;;;;;;1.27;1.17;;;;;;;;;;5004869;28;20018;-79
2021/07/20 06:58:44;;;;;;;1.38;1.10;;;;;;;;;;5008381;28;20326;-79
2021/07/20 07:01:14;;;;;;;1.58;1.40;;;;;;;;;;5002881;28;20459;-79
2021/07/20 07:03:51;;;;;;;1.30;1.20;;;;;;;;;;5003474;28;20539;-79
2021/07/20 07:06:20;;;;;;;1.40;1.30;;;;;;;;;;5005005;28;20037;-80
2021/07/20 07:08:46;;;;;;;1.45;1.20;;;;;;;;;;4985816;28;20026;-79
2021/07/20 07:11:12;;;;;;;1.38;1.27;;;;;;;;;;5002694;28;20399;-79
2021/07/20 07:13:38;;;;;;;1.25;1.10;;;;;;;;;;5003029;28;20034;-79
2021/07/20 07:16:04;;;;;;;1.30;1.20;;;;;;;;;;5004335;28;20030;-78
2021/07/20 07:18:30;;;;;;;1.80;1.38;;;;;;;;;;5006268;28;20026;-79
2021/07/20 07:21:01;;;;;;;1.83;1.20;;;;;;;;;;5008367;28;20040;-79
2021/07/20 07:23:30;;;;;;;2.30;1.30;;;;;;;;;;4992297;28;20069;-80
2021/07/20 07:25:58;;;;;;;1.30;1.20;;;;;;;;;;4985257;28;20033;-79
2021/07/20 07:28:24;;;;;;;1.00;1.00;;;;;;;;;;4983455;28;20034;-78
2021/07/20 07:30:50;;;;;;;1.30;1.20;;;;;;;;;;5003515;28;20133;-78
2021/07/20 07:33:16;;;;;;;1.30;1.20;;;;;;;;;;5005104;28;20409;-80
2021/07/20 07:35:45;;;;;;;1.65;1.38;;;;;;;;;;4993562;28;20046;-80
2021/07/20 07:38:13;;;;;;;1.33;1.23;;;;;;;;;;5006926;28;20086;-79
2021/07/20 07:40:39;;;;;;;1.30;1.20;;;;;;;;;;5006190;28;20093;-79
2021/07/20 07:43:10;;;;;;;1.33;1.17;;;;;;;;;;5002117;28;20652;-80
2021/07/20 07:45:36;;;;;;;1.30;1.20;;;;;;;;;;4986313;28;20037;-77
2021/07/20 07:48:02;;;;;;;1.20;1.10;;;;;;;;;;4991620;28;20041;-78
2021/07/20 07:50:28;;;;;;;1.33;1.20;;;;;;;;;;4988572;28;20017;-80
2021/07/20 07:52:54;;;;;;;1.35;1.23;;;;;;;;;;4995850;28;20080;-79
2021/07/20 07:55:21;;;;;;;1.60;1.37;;;;;;;;;;4998526;28;20030;-78
2021/07/20 07:57:48;;;;;;;1.10;1.10;;;;;;;;;;4994425;28;20515;-79
2021/07/20 08:00:14;;;;;;;2.70;1.37;;;;;;;;;;5002668;28;20049;-77
2021/07/20 08:02:40;;;;;;;;;;;;;;;;;;5006491;28;20408;-77
2021/07/20 08:05:08;;;;;;;1.55;1.20;;;;;;;;;;4989727;28;19920;-77
2021/07/20 08:07:36;;;;;;;1.10;1.10;;;;;;;;;;4994587;28;20034;-76
2021/07/20 08:10:02;;;;;;;1.25;1.10;;;;;;;;;;4988622;28;20022;-77
2021/07/20 08:12:28;;;;;;;1.43;1.30;;;;;;;;;;4986490;28;20113;-77
2021/07/20 08:14:54;;;;;;;1.42;1.25;;;;;;;;;;4983417;28;20065;-77
2021/07/20 08:17:20;;;;;;;1.23;1.13;;;;;;;;;;4997888;28;20542;-76
2021/07/20 08:19:46;;;;;;;1.38;1.27;;;;;;;;;;5005683;28;20084;-76
2021/07/20 08:22:15;;;;;;;1.48;1.17;;;;;;;;;;5002843;28;20141;-77
2021/07/20 08:25:00;;;;;;;1.05;1.00;;;;;;;;;;4998510;28;20619;-77
2021/07/20 08:27:25;;;;;;;1.30;1.20;;;;;;;;;;4965854;28;20042;-77
2021/07/20 08:29:55;;;;;;;1.77;1.20;;;;;;;;;;5007028;28;20336;-77
2021/07/20 08:32:21;;;;;;;1.20;1.10;;;;;;;;;;5010080;28;20038;-77
2021/07/20 08:34:57;;;;;;;2.20;1.38;;;;;;;;;;5011630;28;20099;-77
2021/07/20 08:37:23;;;;;;;1.27;1.10;;;;;;;;;;4984688;28;20398;-77
2021/07/20 08:39:50;;;;;;;1.30;1.20;;;;;;;;;;5013978;28;20022;-76
2021/07/20 08:42:41;;;;;;;1.20;1.10;;;;;;;;;;4976706;28;20030;-76
2021/07/20 08:45:07;;;;;;;1.10;1.05;;;;;;;;;;4998699;28;20054;-76
2021/07/20 08:47:58;;;;;;;1.80;1.30;;;;;;;;;;5002996;28;20022;-76
2021/07/20 08:50:28;;;;;;;1.10;1.00;;;;;;;;;;4957004;28;20038;-77
2021/07/20 08:53:12;;;;;;;1.27;1.17;;;;;;;;;;4997163;28;20018;-76
2021/07/20 08:55:40;;;;;;;1.48;1.10;;;;;;;;;;4998847;28;20093;-76
2021/07/20 08:58:10;;;;;;;1.55;1.20;;;;;;;;;;5001263;28;20023;-76
2021/07/20 09:00:44;;;;;;;1.23;1.13;;;;;;;;;;4985750;28;20046;-77
2021/07/20 09:03:24;;;;;;;2.17;1.20;;;;;;;;;;4998955;28;20461;-75
2021/07/20 09:06:03;;;;;;;1.17;1.08;;;;;;;;;;4984610;28;20041;-76
2021/07/20 09:08:41;;;;;;;1.30;1.20;;;;;;;;;;4998787;28;20161;-76
2021/07/20 09:11:11;;;;;;;1.02;1.00;;;;;;;;;;4991417;28;20852;-76
2021/07/20 09:13:42;;;;;;;1.20;1.10;;;;;;;;;;4996007;28;20036;-76
2021/07/20 09:16:32;;;;;;;1.20;1.10;;;;;;;;;;4969874;28;20902;-76
2021/07/20 09:19:01;;;;;;;1.30;1.20;;;;;;;;;;4974418;28;20066;-77
2021/07/20 09:21:28;;;;;;;1.50;1.23;;;;;;;;;;4977248;28;20213;-77
2021/07/20 09:23:57;;;;;;;1.55;1.25;;;;;;;;;;4979820;28;20014;-77
2021/07/20 09:26:23;;;;;;;1.40;1.30;;;;;;;;;;4984128;28;20197;-77
2021/07/20 09:29:03;;;;;;;1.05;1.05;;;;;;;;;;4962177;28;20038;-76
2021/07/20 09:31:47;;;;;;;1.30;1.17;;;;;;;;;;4996908;28;20456;-77
2021/07/20 09:34:27;;;;;;;1.30;1.20;;;;;;;;;;4989834;28;20065;-76
2021/07/20 09:36:59;;;;;;;1.27;1.17;;;;;;;;;;5001980;28;20030;-76
2021/07/20 09:40:00;;;;;;;1.27;1.17;;;;;;;;;;5004890;28;22989;-75
2021/07/20 09:42:25;;;;;;;1.20;1.00;;;;;;;;;;4915809;29;20060;-76
2021/07/20 09:44:59;;;;;;;1.58;1.23;;;;;;;;;;4974679;28;20053;-78
2021/07/20 09:47:30;;;;;;;1.23;1.13;;;;;;;;;;4977613;28;20034;-76
2021/07/20 09:50:05;;;;;;;1.50;1.20;;;;;;;;;;4977108;28;20184;-77
2021/07/20 09:52:43;;;;;;;1.33;1.23;;;;;;;;;;4979981;28;20036;-77
2021/07/20 09:55:29;;;;;;;1.15;1.05;;;;;;;;;;5008064;28;20094;-77
2021/07/20 09:57:58;;;;;;;1.38;1.20;;;;;;;;;;4985800;28;20068;-77
2021/07/20 10:00:34;;;;;;;1.80;1.25;;;;;;;;;;4997092;28;20748;-78
2021/07/20 10:03:07;;;;;;;1.48;1.33;;;;;;;;;;4996629;28;20045;-78
2021/07/20 10:05:53;;;;;;;1.17;1.10;;;;;;;;;;4982468;28;20030;-77
2021/07/20 10:08:36;;;;;;;1.40;1.30;;;;;;;;;;4975971;28;20499;-77
2021/07/20 10:11:14;;;;;;;1.30;1.20;;;;;;;;;;4988240;28;20166;-77
2021/07/20 10:13:51;;;;;;;1.30;1.20;;;;;;;;;;4986683;28;20026;-76
2021/07/20 10:16:26;;;;;;;1.25;1.20;;;;;;;;;;4982237;28;20225;-77
2021/07/20 10:19:21;;;;;;;1.35;1.25;;;;;;;;;;4994204;28;20025;-76
2021/07/20 10:21:51;;;;;;;2.10;1.40;;;;;;;;;;4982845;28;20046;-76
2021/07/20 10:24:23;;;;;;;1.67;1.35;;;;;;;;;;5010649;28;20104;-77
2021/07/20 10:27:13;;;;;;;1.25;1.23;;;;;;;;;;4987770;28;20025;-77
2021/07/20 10:29:57;;;;;;;1.50;1.40;;;;;;;;;;4981060;28;21579;-76
2021/07/20 10:32:22;;;;;;;1.27;1.20;;;;;;;;;;5002439;28;20054;-77
2021/07/20 10:34:51;;;;;;;1.77;1.30;;;;;;;;;;4980155;28;20109;-76
2021/07/20 10:37:36;;;;;;;1.30;1.20;;;;;;;;;;4980636;28;20053;-76
2021/07/20 10:40:12;;;;;;;1.67;1.47;;;;;;;;;;4978607;28;20042;-76
2021/07/20 10:42:50;;;;;;;1.40;1.30;;;;;;;;;;4960160;28;20044;-77
2021/07/20 10:45:19;;;;;;;1.23;1.20;;;;;;;;;;4980404;28;20057;-77
2021/07/20 10:47:58;;;;;;;1.33;1.23;;;;;;;;;;4972995;28;20044;-77
2021/07/20 10:50:43;;;;;;;1.23;1.20;;;;;;;;;;4974156;28;20041;-77
2021/07/20 10:53:13;;;;;;;1.35;1.25;;;;;;;;;;4965149;28;20030;-77
2021/07/20 10:55:57;;;;;;;1.45;1.35;;;;;;;;;;4979258;28;20036;-77
2021/07/20 10:58:29;;;;;;;1.40;1.30;;;;;;;;;;4975967;28;20037;-77
2021/07/20 11:01:03;;;;;;;1.27;1.20;;;;;;;;;;4990994;28;20026;-77
2021/07/20 11:03:34;;;;;;;1.55;1.20;;;;;;;;;;4973503;28;20496;-77
2021/07/20 11:06:00;;;;;;;1.30;1.20;;;;;;;;;;4991244;28;20476;-77
2021/07/20 11:08:27;;;;;;;1.25;1.15;;;;;;;;;;4982460;28;20400;-77
2021/07/20 11:10:54;;;;;;;1.67;1.40;;;;;;;;;;4985596;28;21055;-77
2021/07/20 11:13:26;;;;;;;1.20;1.10;;;;;;;;;;4976405;28;20560;-76
2021/07/20 11:15:55;;;;;;;1.50;1.40;;;;;;;;;;4981040;28;20034;-77
2021/07/20 11:18:25;;;;;;;1.30;1.20;;;;;;;;;;4980163;28;20022;-77
2021/07/20 11:20:52;;;;;;;1.38;1.27;;;;;;;;;;4976359;28;20794;-76
2021/07/20 11:23:19;;;;;;;;;;;;;;;;;;4985905;28;20049;-77
2021/07/20 11:25:44;;;;;;;1.40;1.30;;;;;;;;;;4971075;28;20308;-77
2021/07/20 11:28:10;;;;;;;1.83;1.50;;;;;;;;;;4959909;28;20077;-77
2021/07/20 11:30:37;;;;;;;1.40;1.30;;;;;;;;;;4983074;28;20038;-77
2021/07/20 11:33:05;;;;;;;1.30;1.20;;;;;;;;;;4978586;28;20665;-77
2021/07/20 11:35:35;;;;;;;1.40;1.30;;;;;;;;;;4962556;28;20037;-76
2021/07/20 11:38:05;;;;;;;1.73;1.40;;;;;;;;;;4976612;28;20042;-78
2021/07/20 11:40:35;;;;;;;1.00;1.00;;;;;;;;;;4987936;28;20034;-77
2021/07/20 11:43:04;;;;;;;2.50;1.40;;;;;;;;;;4961009;28;20458;-77
2021/07/20 11:45:37;;;;;;;1.40;1.30;;;;;;;;;;4987890;28;20045;-78
2021/07/20 11:48:05;;;;;;;1.40;1.25;;;;;;;;;;4969934;28;20038;-76
2021/07/20 11:50:34;;;;;;;1.30;1.20;;;;;;;;;;4968854;28;20116;-75
2021/07/20 11:53:03;;;;;;;1.48;1.10;;;;;;;;;;4972813;28;20666;-76
2021/07/20 11:55:47;;;;;;;1.33;1.00;;;;;;;;;;4968486;28;20029;-76
2021/07/20 11:58:22;;;;;;;1.05;1.00;;;;;;;;;;4969199;28;20112;-77
2021/07/20 12:00:47;;;;;;;1.30;1.20;;;;;;;;;;4966909;28;20121;-77
2021/07/20 12:03:25;;;;;;;1.00;1.00;;;;;;;;;;4979410;28;20087;-77
2021/07/20 12:06:09;;;;;;;0.90;0.90;;;;;;;;;;4972405;28;20088;-76
2021/07/20 12:08:40;;;;;;;1.48;1.17;;;;;;;;;;4977840;28;20030;-78
2021/07/20 12:11:08;;;;;;;1.00;1.00;;;;;;;;;;4976197;28;20607;-77
2021/07/20 12:13:35;;;;;;;0.90;0.90;;;;;;;;;;4959635;28;20080;-76
2021/07/20 12:16:06;;;;;;;1.92;1.00;;;;;;;;;;4974712;28;20202;-77
2021/07/20 12:18:36;;;;;;;1.17;1.10;;;;;;;;;;4982799;28;20106;-77
2021/07/20 12:21:02;;;;;;;1.17;1.10;;;;;;;;;;4998696;28;20467;-77
2021/07/20 12:23:27;;;;;;;1.10;1.00;;;;;;;;;;5005746;28;20085;-76
2021/07/20 12:25:53;;;;;;;1.00;1.00;;;;;;;;;;5008232;28;20060;-77
2021/07/20 12:28:20;;;;;;;1.00;0.90;;;;;;;;;;4998859;28;20435;-76
2021/07/20 12:30:45;;;;;;;1.20;1.10;;;;;;;;;;4995974;28;20084;-77
2021/07/20 12:33:13;;;;;;;0.83;0.83;;;;;;;;;;5011075;28;20068;-76
2021/07/20 12:35:43;;;;;;;1.42;1.00;;;;;;;;;;5016629;28;20307;-78
2021/07/20 12:38:08;;;;;;;0.82;0.82;;;;;;;;;;5015570;28;20129;-77
2021/07/20 12:40:35;;;;;;;0.90;0.90;;;;;;;;;;4995447;28;20510;-78
2021/07/20 12:43:09;;;;;;;0.82;0.82;;;;;;;;;;4998036;28;20111;-75
2021/07/20 12:45:35;;;;;;;1.08;1.00;;;;;;;;;;4996572;28;20034;-77
2021/07/20 12:48:01;;;;;;;0.70;0.70;;;;;;;;;;5004282;28;20643;-77
2021/07/20 12:50:28;;;;;;;0.85;0.70;;;;;;;;;;4990011;28;20054;-78
2021/07/20 12:52:54;;;;;;;0.63;0.63;;;;;;;;;;5002504;28;20038;-78
2021/07/20 12:55:21;;;;;;;0.90;0.90;;;;;;;;;;5007814;28;20040;-78
2021/07/20 12:57:56;;;;;;;0.68;0.68;;;;;;;;;;5003200;28;20120;-76
2021/07/20 13:00:23;;;;;;;0.70;0.70;;;;;;;;;;4997444;28;20470;-78
2021/07/20 13:02:49;;;;;;;0.90;0.90;;;;;;;;;;5004157;28;20028;-79
2021/07/20 13:05:15;;;;;;;0.80;0.80;;;;;;;;;;5008741;28;20116;-78
2021/07/20 13:07:40;;;;;;;0.73;0.73;;;;;;;;;;5005303;28;20043;-78
2021/07/20 13:10:06;;;;;;;0.80;0.80;;;;;;;;;;5007194;28;20026;-77
2021/07/20 13:12:38;;;;;;;0.80;0.80;;;;;;;;;;5009434;28;20064;-76
2021/07/20 13:15:19;;;;;;;1.00;0.90;;;;;;;;;;4993658;28;20089;-79
2021/07/20 13:17:48;;;;;;;0.60;0.60;;;;;;;;;;4999490;28;20037;-76
2021/07/20 13:20:13;;;;;;;0.65;0.65;;;;;;;;;;5006804;28;20022;-77
2021/07/20 13:22:41;;;;;;;0.80;0.80;;;;;;;;;;4998530;28;20519;-77
2021/07/20 13:25:11;;;;;;;0.98;0.82;;;;;;;;;;5005936;28;20382;-77
2021/07/20 13:27:37;;;;;;;0.60;0.60;;;;;;;;;;4999574;28;20447;-76
2021/07/20 13:30:02;;;;;;;;;;;;;;;;;;4988289;28;20036;-76
2021/07/20 13:32:30;;;;;;;1.02;0.85;;;;;;;;;;4998235;28;19917;-77
2021/07/20 13:34:55;;;;;;;;;;;;;;;;;;5008312;28;20037;-77
2021/07/20 13:37:21;;;;;;;0.77;0.77;;;;;;;;;;4995057;28;19905;-77
2021/07/20 13:39:49;;;;;;;1.23;0.82;;;;;;;;;;4995430;28;20268;-77
2021/07/20 13:42:16;;;;;;;0.60;0.60;;;;;;;;;;5002288;28;20034;-76
2021/07/20 13:44:41;;;;;;;0.63;0.63;;;;;;;;;;5002636;28;20057;-78
2021/07/20 13:47:07;;;;;;;;;;;;;;;;;;5004711;28;20048;-78
2021/07/20 13:49:34;;;;;;;0.70;0.70;;;;;;;;;;4994888;28;19990;-78
2021/07/20 13:52:00;;;;;;;;;;;;;;;;;;5004723;28;20068;-77
2021/07/20 13:54:26;;;;;;;0.73;0.73;;;;;;;;;;5005850;28;20294;-78
2021/07/20 13:56:51;;;;;;;;;;;;;;;;;;5008111;28;20472;-78
2021/07/20 13:59:19;;;;;;;0.70;0.70;;;;;;;;;;4990628;28;19953;-77
2021/07/20 14:01:47;;;;;;;0.70;0.70;;;;;;;;;;5001105;28;20280;-76
2021/07/20 14:04:12;;;;;;;0.65;0.65;;;;;;;;;;5010000;28;20022;-77
2021/07/20 14:06:39;;;;;;;0.60;0.60;;;;;;;;;;5002850;28;20041;-78
2021/07/20 14:09:05;;;;;;;0.70;0.70;;;;;;;;;;4994986;28;20021;-77
2021/07/20 14:11:30;;;;;;;0.60;0.60;;;;;;;;;;5002827;28;20495;-79
2021/07/20 14:13:56;;;;;;;0.50;0.50;;;;;;;;;;5009629;28;20069;-78
2021/07/20 14:16:22;;;;;;;1.05;0.80;;;;;;;;;;4997641;28;20037;-76
2021/07/20 14:18:47;;;;;;;;;;;;;;;;;;5013672;28;20094;-77
2021/07/20 14:21:22;;;;;;;0.63;0.63;;;;;;;;;;5006196;28;19914;-76
2021/07/20 14:23:47;;;;;;;0.60;0.60;;;;;;;;;;5014646;28;20048;-77
2021/07/20 14:26:12;;;;;;;;;;;;;;;;;;5012288;28;20018;-77
2021/07/20 14:28:38;;;;;;;;;;;;;;;;;;5001836;28;19918;-77
2021/07/20 14:31:03;;;;;;;0.83;0.80;;;;;;;;;;5009542;28;19983;-75
2021/07/20 14:33:30;;;;;;;0.70;0.70;;;;;;;;;;4997525;28;20033;-77
2021/07/20 14:35:55;;;;;;;0.93;0.75;;;;;;;;;;4999825;28;20044;-77
2021/07/20 14:38:34;;;;;;;2.05;0.80;;;;;;;;;;4992458;28;20136;-76
2021/07/20 14:41:07;;;;;;;0.75;0.73;;;;;;;;;;5001825;28;20062;-76
2021/07/20 14:43:34;;;;;;;0.65;0.60;;;;;;;;;;5004036;28;20023;-77
2021/07/20 14:46:06;;;;;;;0.85;0.85;;;;;;;;;;5001930;28;20582;-77
2021/07/20 14:48:32;;;;;;;0.60;0.60;;;;;;;;;;4983707;28;20058;-77
2021/07/20 14:51:03;;;;;;;0.60;0.60;;;;;;;;;;4995705;28;20057;-76
2021/07/20 14:53:28;;;;;;;0.98;0.77;;;;;;;;;;5005238;28;20048;-78
2021/07/20 14:55:55;;;;;;;0.70;0.70;;;;;;;;;;5003214;28;20142;-77
2021/07/20 14:58:27;;;;;;;0.85;0.80;;;;;;;;;;5003560;28;20034;-77
2021/07/20 15:01:18;;;;;;;0.70;0.70;;;;;;;;;;5003563;28;20034;-78
2021/07/20 15:03:45;;;;;;;0.70;0.70;;;;;;;;;;4980492;28;20034;-76
2021/07/20 15:06:15;;;;;;;0.47;0.47;;;;;;;;;;5011771;28;20048;-77
2021/07/20 15:08:45;;;;;;;0.50;0.50;;;;;;;;;;4997898;28;20070;-74
2021/07/20 15:11:20;;;;;;;0.55;0.55;;;;;;;;;;4998065;28;20034;-78
2021/07/20 15:13:48;;;;;;;0.60;0.60;;;;;;;;;;5011551;28;20030;-77